This is the latest recevied weather packets stored in our database for station/object DC1MPP-9. If no packets are shown the sender has not sent any weather packets the latest 10 day(s).
| Time | Temp. | Humidity | Pressure | Rain* | Wind** | Luminosity | Snow |
|---|---|---|---|---|---|---|---|
| 1777835162 | 20.56° C | 48% | 955 hPa | - | - | - | - |
| 1777833716 | 21.67° C | 43% | 955 hPa | - | - | - | - |
| 1777833475 | 21.67° C | 41% | 955 hPa | - | - | - | - |
| 1777833234 | 21.67° C | 42% | 955 hPa | - | - | - | - |
| 1777832993 | 21.67° C | 39% | 955 hPa | - | - | - | - |
| 1777832752 | 22.22° C | 39% | 955 hPa | - | - | - | - |
| 1777832510 | 22.22° C | 37% | 955 hPa | - | - | - | - |
| 1777829136 | 24.44° C | 31% | 954 hPa | - | - | - | - |
| 1777828894 | 24.44° C | 31% | 954 hPa | - | - | - | - |
| 1777827689 | 25° C | 31% | 954 hPa | - | - | - | - |
| 1777826484 | 25.56° C | 30% | 954 hPa | - | - | - | - |
| 1777826243 | 25.56° C | 28% | 954 hPa | - | - | - | - |
| 1777825278 | 26.11° C | 27% | 954 hPa | - | - | - | - |
| 1777825037 | 26.11° C | 29% | 954 hPa | - | - | - | - |
| 1777823832 | 26.11° C | 27% | 954 hPa | - | - | - | - |
| 1777822868 | 26.11° C | 29% | 954 hPa | - | - | - | - |
| 1777822627 | 26.11° C | 28% | 954 hPa | - | - | - | - |
| 1777822386 | 26.11° C | 28% | 954 hPa | - | - | - | - |
| 1777822145 | 26.11° C | 28% | 954 hPa | - | - | - | - |
| 1777821662 | 26.11° C | 27% | 954 hPa | - | - | - | - |
| 1777821421 | 26.11° C | 27% | 954 hPa | - | - | - | - |
| 1777820216 | 26.67° C | 26% | 954 hPa | - | - | - | - |
| 1777819252 | 27.22° C | 24% | 954 hPa | - | - | - | - |
| 1777819011 | 27.22° C | 25% | 954 hPa | - | - | - | - |
| 1777818770 | 27.78° C | 28% | 954 hPa | - | - | - | - |
* Rain since midnight (hover to see other rain measurements)
** Current wind speed in m/s (hover to see current wind gust speed)